Terminal Aerodrome Forecast
Issued by NWS

Home | Current Version | Previous Version | Text Only | Print | Product List | Glossary On
Versions: 1 2 3 4 5 6 7 8 9 10 11 12 13 14 15 16 17 18 19 20
000
FTUS41 KRNK 190640 CCA
TAFLWB
TAF COR
KLWB 190640Z 1907/2006 29015G28KT P6SM -SHRA SCT015 OVC035
      TEMPO 1907/1909 4SM -SHRA OVC015
     FM190900 28015G27KT P6SM OVC030
     FM191400 29016G26KT P6SM BKN040
     FM200200 30012G21KT P6SM SCT040=

USA.gov is the U.S. government's official web portal to all federal, state and local government web resources and services.